createdAt,value
2019-06-26T00:01:23.682Z,48.05
2019-06-26T00:03:57.804Z,43.00
2019-06-26T00:06:31.787Z,33.30
2019-06-26T00:09:23.005Z,39.38
2019-06-26T00:11:54.557Z,33.30
2019-06-26T00:14:32.547Z,31.27
2019-06-26T00:17:06.598Z,31.35
2019-06-26T00:19:40.394Z,28.42
2019-06-26T00:27:41.841Z,35.80
2019-06-26T00:32:47.865Z,39.18
2019-06-26T00:35:21.676Z,42.93
2019-06-26T00:38:03.335Z,39.42
2019-06-26T00:40:43.216Z,42.48
2019-06-26T00:43:18.717Z,39.45
2019-06-26T00:45:55.762Z,41.92
2019-06-26T00:48:29.882Z,46.15
2019-06-26T00:51:06.358Z,50.00
2019-06-26T00:53:45.133Z,43.45
2019-06-26T00:56:18.407Z,46.60
2019-06-26T00:58:52.465Z,55.70
2019-06-26T01:01:26.520Z,44.67
2019-06-26T01:04:01.515Z,50.12
2019-06-26T01:06:47.044Z,49.55
2019-06-26T01:09:20.854Z,50.03
2019-06-26T01:11:54.761Z,52.90
2019-06-26T01:14:28.380Z,53.95
2019-06-26T01:19:40.237Z,47.95
2019-06-26T01:22:14.145Z,49.77
2019-06-26T01:24:47.784Z,48.98
2019-06-26T01:29:53.507Z,56.50
2019-06-26T01:35:02.339Z,51.25
2019-06-26T01:37:39.017Z,54.70
2019-06-26T01:40:13.199Z,62.03
2019-06-26T01:42:47.178Z,48.70
2019-06-26T01:45:21.200Z,54.95
2019-06-26T01:48:05.345Z,48.85
2019-06-26T01:50:39.698Z,53.70
2019-06-26T01:55:50.763Z,73.52
2019-06-26T02:00:57.150Z,50.50
2019-06-26T02:03:31.087Z,51.23
2019-06-26T02:06:04.918Z,51.73
2019-06-26T02:11:12.863Z,53.02
2019-06-26T02:13:46.783Z,52.90
2019-06-26T02:16:23.639Z,58.55
2019-06-26T02:18:57.980Z,52.23
2019-06-26T02:21:34.312Z,63.63
2019-06-26T02:24:07.667Z,66.53
2019-06-26T02:26:41.743Z,64.80
2019-06-26T02:29:15.722Z,114.80
2019-06-26T02:31:49.697Z,65.15
2019-06-26T02:34:26.001Z,55.10
2019-06-26T02:37:00.107Z,53.42
2019-06-26T02:39:34.195Z,63.90
2019-06-26T02:42:09.323Z,66.53
2019-06-26T02:44:52.938Z,61.58
2019-06-26T02:47:22.268Z,50.30
2019-06-26T02:49:59.214Z,69.17
2019-06-26T02:52:35.085Z,66.97
2019-06-26T02:55:10.058Z,57.05
2019-06-26T02:57:44.974Z,71.45
2019-06-26T03:00:19.547Z,55.88
2019-06-26T03:02:53.450Z,53.90
2019-06-26T03:05:27.047Z,52.70
2019-06-26T03:10:33.545Z,53.78
2019-06-26T03:13:11.412Z,47.90
2019-06-26T03:15:50.511Z,50.50
2019-06-26T03:18:21.140Z,42.53
2019-06-26T03:20:58.521Z,43.78
2019-06-26T03:23:32.459Z,52.35
2019-06-26T03:26:06.563Z,47.73
2019-06-26T03:28:50.323Z,50.10
2019-06-26T03:33:57.607Z,43.50
2019-06-26T03:36:35.975Z,41.30
2019-06-26T03:39:10.790Z,58.70
2019-06-26T03:41:45.631Z,42.33
2019-06-26T03:47:00.154Z,39.35
2019-06-26T03:49:38.877Z,53.90
2019-06-26T03:52:12.193Z,41.33
2019-06-26T03:57:35.519Z,42.38
2019-06-26T04:00:19.132Z,37.83
2019-06-26T04:02:51.942Z,34.98
2019-06-26T04:05:31.810Z,37.95
2019-06-26T04:08:05.765Z,56.63
2019-06-26T04:10:43.040Z,34.73
2019-06-26T04:13:20.759Z,39.65
2019-06-26T04:15:54.846Z,53.73
2019-06-26T04:18:28.838Z,40.30
2019-06-26T04:21:07.095Z,33.83
2019-06-26T04:23:40.554Z,38.30
2019-06-26T04:26:14.446Z,35.73
2019-06-26T04:28:51.121Z,35.43
2019-06-26T04:33:58.393Z,35.33
2019-06-26T04:36:36.226Z,33.08
2019-06-26T04:39:11.299Z,35.25
2019-06-26T04:41:47.220Z,31.80
2019-06-26T04:44:30.543Z,31.45
2019-06-26T04:47:05.993Z,35.73
2019-06-26T04:49:40.257Z,30.12
2019-06-26T04:55:46.976Z,29.40
2019-06-26T04:58:23.031Z,49.75
2019-06-26T05:03:30.283Z,29.30
2019-06-26T05:06:05.087Z,32.85
2019-06-26T05:08:39.099Z,32.75
2019-06-26T05:11:19.998Z,34.35
2019-06-26T05:13:55.981Z,24.43
2019-06-26T05:16:36.171Z,26.37
2019-06-26T05:19:09.940Z,25.40
2019-06-26T05:21:44.153Z,27.35
2019-06-26T05:24:18.268Z,30.40
2019-06-26T05:26:53.258Z,37.10
2019-06-26T05:29:27.876Z,23.83
2019-06-26T05:32:14.310Z,17.90
2019-06-26T05:34:45.261Z,20.08
2019-06-26T05:37:17.774Z,34.50
2019-06-26T05:39:54.835Z,19.45
2019-06-26T05:42:32.807Z,27.22
2019-06-26T05:45:10.752Z,19.70
2019-06-26T05:47:44.897Z,15.00
2019-06-26T05:50:22.909Z,15.75
2019-06-26T05:52:56.721Z,15.35
2019-06-26T05:55:33.642Z,14.28
2019-06-26T05:58:16.208Z,11.40
2019-06-26T06:00:58.864Z,11.33
2019-06-26T06:03:35.714Z,13.50
2019-06-26T06:06:09.691Z,13.72
2019-06-26T06:08:44.364Z,8.30
2019-06-26T06:11:24.467Z,11.73
2019-06-26T06:13:58.194Z,7.37
2019-06-26T06:19:05.869Z,6.90
2019-06-26T06:21:39.669Z,9.40
2019-06-26T06:27:08.202Z,8.90
2019-06-26T06:29:41.501Z,10.35
2019-06-26T06:32:17.587Z,10.72
2019-06-26T06:37:53.644Z,8.43
2019-06-26T06:40:30.398Z,9.63
2019-06-26T06:43:04.430Z,8.80
2019-06-26T06:45:43.158Z,11.85
2019-06-26T06:48:16.652Z,7.10
2019-06-26T06:50:50.681Z,13.15
2019-06-26T06:53:24.563Z,9.45
2019-06-26T06:55:59.795Z,9.85
2019-06-26T06:58:43.896Z,8.90
2019-06-26T07:01:13.950Z,7.10
2019-06-26T07:03:51.752Z,7.75
2019-06-26T07:06:33.706Z,8.93
2019-06-26T07:09:15.179Z,8.23
2019-06-26T07:11:49.188Z,11.00
2019-06-26T07:14:24.173Z,7.30
2019-06-26T07:17:01.411Z,6.17
2019-06-26T07:19:34.348Z,6.00
2019-06-26T07:22:18.983Z,8.08
2019-06-26T07:24:49.875Z,6.80
2019-06-26T07:27:28.687Z,5.67
2019-06-26T07:30:02.362Z,8.13
2019-06-26T07:32:40.491Z,6.78
2019-06-26T07:35:17.246Z,11.93
2019-06-26T07:37:51.132Z,6.03
2019-06-26T07:40:25.098Z,8.40
2019-06-26T07:43:01.420Z,7.62
2019-06-26T07:45:35.612Z,9.43
2019-06-26T07:48:14.640Z,9.93
2019-06-26T07:50:47.900Z,9.53
2019-06-26T07:53:23.672Z,9.33
2019-06-26T07:55:59.827Z,6.12
2019-06-26T07:58:48.393Z,6.25
2019-06-26T08:01:23.423Z,8.68
2019-06-26T08:04:07.475Z,12.37
2019-06-26T08:06:39.361Z,6.70
2019-06-26T08:09:14.121Z,14.47
2019-06-26T08:11:48.065Z,8.85
2019-06-26T08:14:25.613Z,10.60
2019-06-26T08:17:00.488Z,6.87
2019-06-26T08:19:35.390Z,7.75
2019-06-26T08:22:10.421Z,9.20
2019-06-26T08:24:45.356Z,21.12
2019-06-26T08:27:27.594Z,21.35
2019-06-26T08:30:02.595Z,16.17
2019-06-26T08:32:36.415Z,12.98
2019-06-26T08:35:17.579Z,10.53
2019-06-26T08:37:50.968Z,10.85
2019-06-26T08:40:30.198Z,7.03
2019-06-26T08:43:08.080Z,6.85
2019-06-26T08:45:43.847Z,10.32
2019-06-26T08:48:39.421Z,7.80
2019-06-26T08:51:14.930Z,7.22
2019-06-26T08:53:48.286Z,6.83
2019-06-26T08:56:24.780Z,9.28
2019-06-26T08:58:58.461Z,7.78
2019-06-26T09:01:37.223Z,8.13
2019-06-26T09:04:13.743Z,8.53
2019-06-26T09:06:47.802Z,6.70
2019-06-26T09:09:21.603Z,10.45
2019-06-26T09:11:56.505Z,6.40
2019-06-26T09:14:36.510Z,9.20
2019-06-26T09:17:05.279Z,11.60
2019-06-26T09:22:18.202Z,7.47
2019-06-26T09:25:20.241Z,7.47
2019-06-26T09:27:36.763Z,7.20
2019-06-26T09:30:12.782Z,6.90
2019-06-26T09:32:46.811Z,9.38
2019-06-26T09:35:20.963Z,11.38
2019-06-26T09:37:57.830Z,8.58
2019-06-26T09:40:35.092Z,8.98
2019-06-26T09:43:09.000Z,7.75
2019-06-26T09:45:42.618Z,9.03
2019-06-26T09:51:00.338Z,7.90
2019-06-26T09:53:47.042Z,10.03
2019-06-26T09:56:14.262Z,8.40
2019-06-26T09:58:53.740Z,7.58
2019-06-26T10:01:35.472Z,9.40
2019-06-26T10:04:09.736Z,11.45
2019-06-26T10:06:43.516Z,8.55
2019-06-26T10:09:21.643Z,10.68
2019-06-26T10:11:55.709Z,8.68
2019-06-26T10:14:46.145Z,10.53
2019-06-26T10:17:06.664Z,8.85
2019-06-26T10:19:40.895Z,8.50
2019-06-26T10:22:24.241Z,9.50
2019-06-26T10:24:53.121Z,7.83
2019-06-26T10:27:26.885Z,11.48
2019-06-26T10:30:15.926Z,9.20
2019-06-26T10:32:54.389Z,10.65
2019-06-26T10:35:28.027Z,8.58
2019-06-26T10:38:03.045Z,8.90
2019-06-26T10:40:38.034Z,8.70
2019-06-26T10:43:22.650Z,7.90
2019-06-26T10:45:56.801Z,12.98
2019-06-26T10:48:48.292Z,8.28
2019-06-26T10:51:21.986Z,9.30
2019-06-26T10:56:30.589Z,8.60
2019-06-26T10:59:12.598Z,13.30
2019-06-26T11:01:45.844Z,10.13
2019-06-26T11:04:20.583Z,8.65
2019-06-26T11:07:08.956Z,13.03
2019-06-26T11:09:44.547Z,17.10
2019-06-26T11:12:18.641Z,19.73
2019-06-26T11:14:52.364Z,15.58
2019-06-26T11:17:26.073Z,10.15
2019-06-26T11:20:06.346Z,14.75
2019-06-26T11:22:53.940Z,14.95
2019-06-26T11:25:27.634Z,11.75
2019-06-26T11:28:07.636Z,8.03
2019-06-26T11:30:55.320Z,12.25
2019-06-26T11:33:32.127Z,10.45
2019-06-26T11:36:07.107Z,13.28
2019-06-26T11:38:51.770Z,8.50
2019-06-26T11:41:28.156Z,10.58
2019-06-26T11:43:58.987Z,16.02
2019-06-26T11:46:41.687Z,12.65
2019-06-26T11:49:13.628Z,25.72
2019-06-26T11:51:50.166Z,88.05
2019-06-26T11:54:34.588Z,20.57
2019-06-26T12:00:05.576Z,12.25
2019-06-26T12:05:30.424Z,12.50
2019-06-26T12:08:21.302Z,15.90
2019-06-26T12:10:55.028Z,18.62
2019-06-26T12:14:00.626Z,16.57
2019-06-26T12:16:22.306Z,14.47
2019-06-26T12:18:57.126Z,12.80
2019-06-26T12:21:32.608Z,13.22
2019-06-26T12:24:08.060Z,20.72
2019-06-26T12:26:46.144Z,15.88
2019-06-26T12:29:20.075Z,12.53
2019-06-26T12:31:53.902Z,14.05
2019-06-26T12:34:50.982Z,17.90
2019-06-26T12:37:17.709Z,22.27
2019-06-26T12:42:45.692Z,46.63
2019-06-26T12:45:22.064Z,22.35
2019-06-26T12:47:59.335Z,21.10
2019-06-26T12:50:36.161Z,18.77
2019-06-26T12:53:25.425Z,12.65
2019-06-26T12:56:34.283Z,18.62
2019-06-26T12:59:56.753Z,17.32
2019-06-26T13:02:09.939Z,17.92
2019-06-26T13:04:51.814Z,20.48
2019-06-26T13:07:36.114Z,24.60
2019-06-26T13:10:21.318Z,20.23
2019-06-26T13:13:04.364Z,19.45
2019-06-26T13:15:34.052Z,15.58
2019-06-26T13:18:16.548Z,21.20
2019-06-26T13:21:04.059Z,15.58
2019-06-26T13:23:34.428Z,18.42
2019-06-26T13:26:09.257Z,18.15
2019-06-26T13:28:46.161Z,18.10
2019-06-26T13:31:36.741Z,15.48
2019-06-26T13:34:11.633Z,13.40
2019-06-26T13:36:54.614Z,25.08
2019-06-26T13:39:26.524Z,21.17
2019-06-26T13:42:04.435Z,15.00
2019-06-26T13:44:38.215Z,14.80
2019-06-26T13:47:28.694Z,16.12
2019-06-26T13:50:02.903Z,13.35
2019-06-26T13:53:01.320Z,25.30
2019-06-26T13:55:22.368Z,18.40
2019-06-26T14:00:32.748Z,17.52
2019-06-26T14:03:07.687Z,9.23
2019-06-26T14:05:42.780Z,16.27
2019-06-26T14:08:21.293Z,20.72
2019-06-26T14:13:47.831Z,13.83
2019-06-26T14:16:30.567Z,17.60
2019-06-26T14:19:25.924Z,17.00
2019-06-26T14:21:52.226Z,16.45
2019-06-26T14:24:27.727Z,19.98
2019-06-26T14:27:05.017Z,16.42
2019-06-26T14:30:05.719Z,14.05
2019-06-26T14:32:40.914Z,14.10
2019-06-26T14:35:34.284Z,19.65
2019-06-26T14:38:10.639Z,15.43
2019-06-26T14:40:44.621Z,15.00
2019-06-26T14:46:10.360Z,16.65
2019-06-26T14:48:57.939Z,18.23
2019-06-26T14:51:47.174Z,22.82
2019-06-26T14:54:21.032Z,19.15
2019-06-26T14:57:07.617Z,17.62
2019-06-26T14:59:53.575Z,20.60
2019-06-26T15:02:31.958Z,20.15
2019-06-26T15:05:08.366Z,23.85
2019-06-26T15:07:44.424Z,18.65
2019-06-26T15:10:19.306Z,19.90
2019-06-26T15:12:57.976Z,17.87
2019-06-26T15:15:36.072Z,20.82
2019-06-26T15:18:13.138Z,11.90
2019-06-26T15:21:09.339Z,15.72
2019-06-26T15:23:43.656Z,14.93
2019-06-26T15:26:19.921Z,16.52
2019-06-26T15:28:54.018Z,15.53
2019-06-26T15:31:42.881Z,17.85
2019-06-26T15:34:40.977Z,22.40
2019-06-26T15:37:22.860Z,27.90
2019-06-26T15:39:55.178Z,25.90
2019-06-26T15:42:37.928Z,31.68
2019-06-26T15:47:56.235Z,16.17
2019-06-26T15:50:38.580Z,15.08
2019-06-26T15:53:23.558Z,13.28
2019-06-26T15:56:06.974Z,17.10
2019-06-26T16:01:53.296Z,18.35
2019-06-26T16:04:15.975Z,17.05
2019-06-26T16:06:56.321Z,17.92
2019-06-26T16:09:29.649Z,25.35
2019-06-26T16:12:15.781Z,14.33
2019-06-26T16:14:56.306Z,16.70
2019-06-26T16:17:50.850Z,18.30
2019-06-26T16:20:23.076Z,21.10
2019-06-26T16:23:08.917Z,22.15
2019-06-26T16:25:57.687Z,23.52
2019-06-26T16:31:21.094Z,16.35
2019-06-26T16:33:55.063Z,19.32
2019-06-26T16:36:31.647Z,18.57
2019-06-26T16:39:06.146Z,22.42
2019-06-26T16:41:41.427Z,17.48
2019-06-26T16:44:16.584Z,16.27
2019-06-26T16:49:49.224Z,14.20
2019-06-26T16:52:25.918Z,26.05
2019-06-26T16:55:04.345Z,17.25
2019-06-26T16:57:37.826Z,13.65
2019-06-26T17:00:12.242Z,13.05
2019-06-26T17:02:52.390Z,18.65
2019-06-26T17:05:43.124Z,13.05
2019-06-26T17:08:14.648Z,15.43
2019-06-26T17:10:48.716Z,14.25
2019-06-26T17:13:22.666Z,14.95
2019-06-26T17:16:05.845Z,15.58
2019-06-26T17:18:41.623Z,17.92
2019-06-26T17:21:16.499Z,17.70
2019-06-26T17:24:00.136Z,18.77
2019-06-26T17:29:06.847Z,26.57
2019-06-26T17:31:45.163Z,17.17
2019-06-26T17:34:21.461Z,23.62
2019-06-26T17:36:55.284Z,27.62
2019-06-26T17:39:34.652Z,19.10
2019-06-26T17:42:09.306Z,18.35
2019-06-26T17:44:44.314Z,21.40
2019-06-26T17:47:20.349Z,21.85
2019-06-26T17:49:54.042Z,13.80
2019-06-26T17:55:00.711Z,20.48
2019-06-26T17:57:34.610Z,21.50
2019-06-26T18:02:50.673Z,18.27
2019-06-26T18:05:28.335Z,20.48
2019-06-26T18:08:05.068Z,22.82
2019-06-26T18:13:31.299Z,17.50
2019-06-26T18:18:38.731Z,18.32
2019-06-26T18:21:13.549Z,18.48
2019-06-26T18:23:49.870Z,18.55
2019-06-26T18:26:23.763Z,20.97
2019-06-26T18:29:04.342Z,20.68
2019-06-26T18:31:38.570Z,21.17
2019-06-26T18:34:12.334Z,19.87
2019-06-26T18:36:46.421Z,16.02
2019-06-26T18:42:12.470Z,14.50
2019-06-26T18:44:46.522Z,14.47
2019-06-26T18:47:23.620Z,17.48
2019-06-26T18:49:57.427Z,20.55
2019-06-26T18:52:31.066Z,20.40
2019-06-26T18:57:39.073Z,18.62
2019-06-26T19:00:16.200Z,14.73
2019-06-26T19:02:49.296Z,21.07
2019-06-26T19:05:24.064Z,17.00
2019-06-26T19:07:57.884Z,18.57
2019-06-26T19:10:32.952Z,23.83
2019-06-26T19:13:06.708Z,20.15
2019-06-26T19:18:14.173Z,21.07
2019-06-26T19:20:47.967Z,20.85
2019-06-26T19:23:21.765Z,19.67
2019-06-26T19:28:27.746Z,20.23
2019-06-26T19:31:01.560Z,21.62
2019-06-26T19:33:54.300Z,19.10
2019-06-26T19:36:29.042Z,19.80
2019-06-26T19:41:36.331Z,25.20
2019-06-26T19:44:09.954Z,19.48
2019-06-26T19:46:44.002Z,22.07
2019-06-26T19:49:17.635Z,21.48
2019-06-26T19:51:51.477Z,16.93
2019-06-26T19:54:28.523Z,20.95
2019-06-26T19:57:00.175Z,19.52
2019-06-26T19:59:43.735Z,19.27
2019-06-26T20:02:17.616Z,20.30
2019-06-26T20:04:51.263Z,17.95
2019-06-26T20:07:25.093Z,18.98
2019-06-26T20:10:01.721Z,21.65
2019-06-26T20:12:34.040Z,19.42
2019-06-26T20:15:09.104Z,20.17
2019-06-26T20:17:42.958Z,18.50
2019-06-26T20:20:17.959Z,18.65
2019-06-26T20:22:52.651Z,19.25
2019-06-26T20:25:26.425Z,19.37
2019-06-26T20:28:15.506Z,20.95
2019-06-26T20:30:50.221Z,16.85
2019-06-26T20:33:23.821Z,21.17
2019-06-26T20:38:29.853Z,16.77
2019-06-26T20:41:06.285Z,19.50
2019-06-26T20:43:40.505Z,16.20
2019-06-26T20:46:15.678Z,16.82
2019-06-26T20:48:49.604Z,17.27
2019-06-26T20:51:23.454Z,21.15
2019-06-26T20:54:00.296Z,21.27
2019-06-26T20:56:34.168Z,14.35
2019-06-26T20:59:08.329Z,23.05
2019-06-26T21:01:44.978Z,17.70
2019-06-26T21:04:19.712Z,17.02
2019-06-26T21:06:53.649Z,22.85
2019-06-26T21:09:27.243Z,18.52
2019-06-26T21:14:33.172Z,17.75
2019-06-26T21:19:39.161Z,18.48
2019-06-26T21:22:22.451Z,19.05
2019-06-26T21:24:54.462Z,19.95
2019-06-26T21:27:28.002Z,22.50
2019-06-26T21:30:01.809Z,17.95
2019-06-26T21:32:39.034Z,16.87
2019-06-26T21:35:11.599Z,26.10
2019-06-26T21:40:26.811Z,17.35
2019-06-26T21:43:05.873Z,23.12
2019-06-26T21:45:39.812Z,24.18
2019-06-26T21:48:21.258Z,18.25
2019-06-26T21:50:55.253Z,17.82
2019-06-26T21:53:29.273Z,15.93
2019-06-26T21:56:22.933Z,21.60
2019-06-26T21:59:14.112Z,18.25
2019-06-26T22:02:05.334Z,20.45
2019-06-26T22:04:53.280Z,21.87
2019-06-26T22:07:44.289Z,24.15
2019-06-26T22:10:22.718Z,21.50
2019-06-26T22:12:57.182Z,23.10
2019-06-26T22:15:40.708Z,21.33
2019-06-26T22:18:14.585Z,44.73
2019-06-26T22:20:48.416Z,19.30
2019-06-26T22:23:22.438Z,17.95
2019-06-26T22:25:56.591Z,23.67
2019-06-26T22:28:30.812Z,24.98
2019-06-26T22:31:06.009Z,14.20
2019-06-26T22:33:42.836Z,18.82
2019-06-26T22:36:16.334Z,18.00
2019-06-26T22:38:50.156Z,18.15
2019-06-26T22:41:26.780Z,24.55
2019-06-26T22:44:01.033Z,21.15
2019-06-26T22:46:35.135Z,26.70
2019-06-26T22:49:09.398Z,46.75
2019-06-26T22:51:43.410Z,41.68
2019-06-26T22:54:19.886Z,39.67
2019-06-26T22:56:54.838Z,28.07
2019-06-26T22:59:29.836Z,23.85
2019-06-26T23:02:04.163Z,18.62
2019-06-26T23:04:38.302Z,20.15
2019-06-26T23:07:15.015Z,18.70
2019-06-26T23:09:48.699Z,18.95
2019-06-26T23:12:22.403Z,17.87
2019-06-26T23:14:59.484Z,17.35
2019-06-26T23:17:35.296Z,21.57
2019-06-26T23:20:23.423Z,20.12
2019-06-26T23:23:00.769Z,17.95
2019-06-26T23:25:37.458Z,23.73
2019-06-26T23:28:22.923Z,14.95
2019-06-26T23:30:51.458Z,17.02
2019-06-26T23:33:27.661Z,15.23
2019-06-26T23:36:08.621Z,17.55
2019-06-26T23:38:42.356Z,16.35
2019-06-26T23:41:18.087Z,13.70
2019-06-26T23:43:51.948Z,24.12
2019-06-26T23:46:25.879Z,24.40
2019-06-26T23:52:01.133Z,19.90
2019-06-26T23:54:34.932Z,17.65
2019-06-26T23:57:17.866Z,13.25
2019-06-26T23:59:51.945Z,21.90
